Time;durP1;ratioP1;P1;durP2;ratioP2;P2;SDS_P1;SDS_P2;PMS_P1;PMS_P2;Temp;Humidity;BMP_temperature;BMP_pressure;BME280_temperature;BME280_humidity;BME280_pressure;Samples;Min_cycle;Max_cycle;Signal;HPM_P1;HPM_P2
2022/03/08 00:02:09;;;;;;;13.43;9.10;;;2.50;99.90;;;;;;4878083;29;20037;-94
2022/03/08 00:04:35;;;;;;;12.50;8.77;;;2.40;99.90;;;;;;4877502;29;20044;-93
2022/03/08 00:07:01;;;;;;;13.57;9.52;;;2.40;99.90;;;;;;4877407;29;20045;-94
2022/03/08 00:09:28;;;;;;;14.10;9.48;;;2.40;99.90;;;;;;4888801;29;20041;-94
2022/03/08 00:11:53;;;;;;;12.05;8.43;;;2.40;99.90;;;;;;4881499;29;20037;-94
2022/03/08 00:14:19;;;;;;;12.65;9.27;;;2.40;99.90;;;;;;4881265;29;20559;-94
2022/03/08 00:16:45;;;;;;;15.60;9.52;;;2.40;99.90;;;;;;4895013;29;20060;-93
2022/03/08 00:19:11;;;;;;;12.40;8.63;;;2.30;99.90;;;;;;4883933;29;20096;-95
2022/03/08 00:21:37;;;;;;;14.80;9.55;;;2.40;99.90;;;;;;4884790;29;20044;-93
2022/03/08 00:24:03;;;;;;;12.75;9.32;;;2.30;99.90;;;;;;4900047;29;20059;-93
2022/03/08 00:26:29;;;;;;;12.68;8.48;;;2.30;99.90;;;;;;4884443;29;20072;-91
2022/03/08 00:28:55;;;;;;;14.77;9.35;;;2.30;99.90;;;;;;4900276;29;20029;-93
2022/03/08 00:31:20;;;;;;;15.02;9.27;;;2.30;99.90;;;;;;4900548;29;20093;-94
2022/03/08 00:33:46;;;;;;;14.70;8.63;;;2.30;99.90;;;;;;4900873;29;20028;-94
2022/03/08 00:36:12;;;;;;;12.30;8.25;;;2.20;99.90;;;;;;4900855;29;20036;-94
2022/03/08 00:38:38;;;;;;;13.30;8.77;;;2.20;99.90;;;;;;4884785;29;20533;-93
2022/03/08 00:41:03;;;;;;;11.70;7.80;;;2.20;99.90;;;;;;4886180;29;20028;-94
2022/03/08 00:43:29;;;;;;;11.95;8.15;;;2.20;99.90;;;;;;4900681;29;20557;-94
2022/03/08 00:45:55;;;;;;;14.43;9.40;;;2.10;99.90;;;;;;4899974;29;20051;-94
2022/03/08 00:48:21;;;;;;;11.85;8.20;;;2.10;99.90;;;;;;4902312;29;20033;-94
2022/03/08 00:50:57;;;;;;;13.15;8.45;;;2.10;99.90;;;;;;4887499;29;20044;-95
2022/03/08 00:53:26;;;;;;;12.15;8.23;;;2.20;99.90;;;;;;4904302;29;20037;-95
2022/03/08 00:55:55;;;;;;;11.80;8.45;;;2.20;99.90;;;;;;4883559;29;20048;-95
2022/03/08 00:58:21;;;;;;;12.77;8.15;;;2.10;99.90;;;;;;4883175;29;20131;-94
2022/03/08 01:00:47;;;;;;;12.13;7.88;;;2.10;99.90;;;;;;4883080;29;20932;-94
2022/03/08 01:03:13;;;;;;;11.40;7.88;;;2.10;99.90;;;;;;4883204;29;20044;-95
2022/03/08 01:05:39;;;;;;;12.75;7.97;;;2.10;99.90;;;;;;4881659;29;20053;-94
2022/03/08 01:08:06;;;;;;;10.77;7.45;;;2.00;99.90;;;;;;4882943;29;20033;-94
2022/03/08 01:10:32;;;;;;;10.35;7.38;;;2.10;99.90;;;;;;4883476;29;20045;-94
2022/03/08 01:12:58;;;;;;;13.02;7.30;;;2.00;99.90;;;;;;4881538;29;20137;-94
2022/03/08 01:15:30;;;;;;;13.13;7.60;;;1.90;99.90;;;;;;4853164;29;20136;-93
2022/03/08 01:17:57;;;;;;;9.50;6.78;;;1.90;99.90;;;;;;4885779;29;20062;-94
2022/03/08 01:20:29;;;;;;;10.02;6.32;;;1.90;99.90;;;;;;4874898;29;20047;-95
2022/03/08 01:22:55;;;;;;;11.15;7.15;;;1.90;99.90;;;;;;4851316;29;20029;-93
2022/03/08 01:25:21;;;;;;;10.23;6.90;;;1.80;99.90;;;;;;4864396;29;20053;-93
2022/03/08 01:27:49;;;;;;;10.95;7.28;;;1.80;99.90;;;;;;4869414;29;20432;-93
2022/03/08 01:30:21;;;;;;;11.77;7.32;;;1.80;99.90;;;;;;4870838;29;20480;-93
2022/03/08 01:32:48;;;;;;;10.73;7.07;;;1.80;99.90;;;;;;4871419;29;20034;-94
2022/03/08 01:35:15;;;;;;;10.05;6.85;;;1.70;99.90;;;;;;4853270;29;20097;-93
2022/03/08 01:37:41;;;;;;;10.85;7.47;;;1.70;99.90;;;;;;4868201;29;20044;-93
2022/03/08 01:40:15;;;;;;;10.40;6.78;;;1.70;99.90;;;;;;4874692;29;20033;-95
2022/03/08 01:42:47;;;;;;;11.18;7.43;;;1.70;99.90;;;;;;4873596;29;20041;-94
2022/03/08 01:45:16;;;;;;;11.85;7.88;;;1.60;99.90;;;;;;4877936;29;20503;-96
2022/03/08 01:47:42;;;;;;;11.68;7.45;;;1.60;99.90;;;;;;4894915;29;20032;-94
2022/03/08 01:50:10;;;;;;;11.40;6.97;;;1.60;99.90;;;;;;4988475;23;20154;-95
2022/03/08 01:52:40;;;;;;;10.27;6.63;;;1.50;99.90;;;;;;4902284;29;20089;-94
2022/03/08 01:55:11;;;;;;;9.98;6.57;;;1.50;99.90;;;;;;4879011;29;20040;-95
2022/03/08 01:57:37;;;;;;;11.93;7.28;;;1.50;99.90;;;;;;4886159;29;20136;-95
2022/03/08 02:00:06;;;;;;;9.18;6.35;;;1.50;99.90;;;;;;4894794;29;20039;-94
2022/03/08 02:02:32;;;;;;;9.90;6.65;;;1.50;99.90;;;;;;4886705;29;20132;-95
2022/03/08 02:04:58;;;;;;;11.85;6.97;;;1.40;99.90;;;;;;4887216;29;20083;-95
2022/03/08 02:07:26;;;;;;;9.48;6.43;;;1.40;99.90;;;;;;4886217;29;20523;-94
2022/03/08 02:09:52;;;;;;;9.60;6.60;;;1.40;99.90;;;;;;4884700;29;20072;-95
2022/03/08 02:12:20;;;;;;;9.10;5.60;;;1.30;99.90;;;;;;4887962;29;20045;-93
2022/03/08 02:14:47;;;;;;;11.32;5.50;;;1.30;99.90;;;;;;4890295;29;20030;-94
2022/03/08 02:17:16;;;;;;;10.10;6.53;;;1.30;99.90;;;;;;4917848;29;20055;-93
2022/03/08 02:19:45;;;;;;;8.55;5.82;;;1.20;99.90;;;;;;4906221;29;20039;-94
2022/03/08 02:22:10;;;;;;;8.75;6.07;;;1.20;99.90;;;;;;4890573;29;20566;-93
2022/03/08 02:24:36;;;;;;;9.68;6.30;;;1.20;99.90;;;;;;4866466;29;20037;-94
2022/03/08 02:27:02;;;;;;;8.65;5.80;;;1.20;99.90;;;;;;4867268;29;20044;-94
2022/03/08 02:29:28;;;;;;;8.43;6.10;;;1.10;99.90;;;;;;4888527;29;20383;-92
2022/03/08 02:31:55;;;;;;;9.18;6.43;;;1.10;99.90;;;;;;4889120;29;20096;-93
2022/03/08 02:34:24;;;;;;;10.15;5.97;;;1.10;99.90;;;;;;4885077;29;20036;-94
2022/03/08 02:37:04;;;;;;;7.97;5.55;;;1.10;99.90;;;;;;4884932;29;20033;-93
2022/03/08 02:39:30;;;;;;;7.97;5.35;;;1.10;99.90;;;;;;4887577;29;20036;-93
2022/03/08 02:41:56;;;;;;;9.25;5.65;;;1.10;99.90;;;;;;4887050;29;20501;-93
2022/03/08 02:44:24;;;;;;;8.45;5.47;;;1.00;99.90;;;;;;4888154;29;20032;-93
2022/03/08 02:46:52;;;;;;;8.25;5.65;;;1.10;99.90;;;;;;4887987;29;20033;-93
2022/03/08 02:49:18;;;;;;;7.57;5.40;;;1.00;99.90;;;;;;4885471;29;20534;-92
2022/03/08 02:51:43;;;;;;;8.30;5.50;;;1.00;99.90;;;;;;4884198;29;20060;-92
2022/03/08 02:54:09;;;;;;;9.55;5.20;;;1.00;99.90;;;;;;4883887;29;20376;-93
2022/03/08 02:56:35;;;;;;;9.05;5.45;;;1.10;99.90;;;;;;4886580;29;20480;-93
2022/03/08 02:59:01;;;;;;;8.70;5.00;;;1.10;99.90;;;;;;4884483;29;20036;-93
2022/03/08 03:01:26;;;;;;;9.95;5.80;;;1.00;99.90;;;;;;4884379;29;20518;-92
2022/03/08 03:03:52;;;;;;;7.93;4.95;;;1.10;99.90;;;;;;4898470;29;20487;-93
2022/03/08 03:06:18;;;;;;;7.32;5.28;;;1.00;99.90;;;;;;4883393;29;20063;-93
2022/03/08 03:08:44;;;;;;;7.03;4.47;;;1.00;99.90;;;;;;4883534;29;20055;-92
2022/03/08 03:11:10;;;;;;;7.45;4.90;;;1.10;99.90;;;;;;4884760;29;20041;-93
2022/03/08 03:13:35;;;;;;;8.15;5.10;;;1.10;99.90;;;;;;4886422;29;20399;-92
2022/03/08 03:16:01;;;;;;;6.80;4.75;;;1.00;99.90;;;;;;4884714;29;20029;-92
2022/03/08 03:18:27;;;;;;;7.63;4.40;;;1.10;99.90;;;;;;4884587;29;20029;-93
2022/03/08 03:20:52;;;;;;;8.68;4.63;;;1.10;99.90;;;;;;4886193;29;20066;-93
2022/03/08 03:23:18;;;;;;;7.97;5.22;;;1.10;99.90;;;;;;4890355;29;20032;-92
2022/03/08 03:25:44;;;;;;;8.68;4.68;;;1.10;99.90;;;;;;4886736;29;20562;-93
2022/03/08 03:28:09;;;;;;;7.93;4.97;;;1.00;99.90;;;;;;4883427;29;20572;-93
2022/03/08 03:30:35;;;;;;;7.78;4.88;;;1.00;99.90;;;;;;4884104;29;20059;-92
2022/03/08 03:33:03;;;;;;;6.40;4.57;;;1.00;99.90;;;;;;4885730;29;20028;-93
2022/03/08 03:35:29;;;;;;;8.57;4.78;;;1.00;99.90;;;;;;4883812;29;20079;-92
2022/03/08 03:37:57;;;;;;;7.60;4.50;;;1.00;99.90;;;;;;4883791;29;20036;-90
2022/03/08 03:40:23;;;;;;;7.97;4.57;;;1.00;99.90;;;;;;4884493;29;20045;-92
2022/03/08 03:42:48;;;;;;;6.00;3.83;;;1.00;99.90;;;;;;4883940;29;20067;-91
2022/03/08 03:45:14;;;;;;;7.00;4.25;;;1.00;99.90;;;;;;4886901;29;20036;-92
2022/03/08 03:47:41;;;;;;;6.75;4.45;;;1.00;99.90;;;;;;4887591;29;20084;-93
2022/03/08 03:50:08;;;;;;;7.95;4.45;;;1.00;99.90;;;;;;4888205;29;20032;-93
2022/03/08 03:52:34;;;;;;;7.30;4.13;;;0.90;99.90;;;;;;4887901;29;20037;-93
2022/03/08 03:55:01;;;;;;;7.85;4.40;;;1.00;99.90;;;;;;4888130;29;20033;-93
2022/03/08 03:57:27;;;;;;;6.32;4.22;;;1.00;99.90;;;;;;4891399;29;20487;-91
2022/03/08 03:59:52;;;;;;;7.00;4.63;;;1.00;99.90;;;;;;4891332;29;20095;-92
2022/03/08 04:02:18;;;;;;;6.13;3.90;;;1.00;99.90;;;;;;4888746;29;20055;-93
2022/03/08 04:04:44;;;;;;;7.65;4.90;;;0.90;99.90;;;;;;4888392;29;20067;-93
2022/03/08 04:07:10;;;;;;;7.35;4.53;;;0.90;99.90;;;;;;4887634;29;20057;-92
2022/03/08 04:09:35;;;;;;;6.88;4.72;;;1.00;99.90;;;;;;4887171;29;20029;-92
2022/03/08 04:12:01;;;;;;;7.30;4.70;;;0.90;99.90;;;;;;4887861;29;20032;-93
2022/03/08 04:14:27;;;;;;;7.00;4.32;;;0.90;99.90;;;;;;4888038;29;20033;-93
2022/03/08 04:16:53;;;;;;;6.80;4.47;;;0.90;99.90;;;;;;4887658;29;20040;-92
2022/03/08 04:19:19;;;;;;;9.73;5.32;;;1.00;99.90;;;;;;4887658;29;20104;-93
2022/03/08 04:21:44;;;;;;;6.63;3.88;;;1.00;99.90;;;;;;4890826;29;20043;-93
2022/03/08 04:24:10;;;;;;;10.52;4.43;;;1.00;99.90;;;;;;4888630;29;20431;-93
2022/03/08 04:26:36;;;;;;;6.72;4.22;;;0.90;99.90;;;;;;4888293;29;20108;-93
2022/03/08 04:29:02;;;;;;;7.13;4.43;;;0.90;99.90;;;;;;4892678;29;20025;-93
2022/03/08 04:31:27;;;;;;;7.20;4.88;;;1.00;99.90;;;;;;4897293;29;20041;-93
2022/03/08 04:33:53;;;;;;;7.00;4.30;;;0.90;99.90;;;;;;4908725;29;20108;-92
2022/03/08 04:36:19;;;;;;;6.43;4.22;;;0.90;99.90;;;;;;4908245;29;20021;-93
2022/03/08 04:38:45;;;;;;;7.72;4.25;;;0.90;99.90;;;;;;4900241;29;20040;-92
2022/03/08 04:41:10;;;;;;;7.70;4.68;;;0.90;99.90;;;;;;4909073;29;20017;-94
2022/03/08 04:43:36;;;;;;;8.98;5.70;;;0.90;99.90;;;;;;4909337;29;20021;-93
2022/03/08 04:46:02;;;;;;;7.47;4.57;;;0.90;99.90;;;;;;4909244;29;20044;-92
2022/03/08 04:48:27;;;;;;;7.50;5.15;;;0.90;99.90;;;;;;4909286;29;20052;-94
2022/03/08 04:50:53;;;;;;;6.53;4.40;;;0.80;99.90;;;;;;4908907;29;20037;-92
2022/03/08 04:53:19;;;;;;;7.53;5.10;;;0.80;99.90;;;;;;4909169;29;20045;-94
2022/03/08 04:55:47;;;;;;;7.63;4.95;;;0.80;99.90;;;;;;4908263;29;20033;-94
2022/03/08 04:58:13;;;;;;;7.07;4.82;;;0.80;99.90;;;;;;4909120;29;20013;-94
2022/03/08 05:00:39;;;;;;;7.93;4.97;;;0.80;99.90;;;;;;4908203;29;20036;-93
2022/03/08 05:03:05;;;;;;;7.82;4.30;;;0.80;99.90;;;;;;4904779;29;20043;-93
2022/03/08 05:05:33;;;;;;;7.07;4.85;;;0.80;99.90;;;;;;4890523;29;20048;-93
2022/03/08 05:07:59;;;;;;;6.60;4.45;;;0.80;99.90;;;;;;4891643;29;20028;-93
2022/03/08 05:10:26;;;;;;;8.32;4.20;;;0.70;99.90;;;;;;4895338;29;20123;-93
2022/03/08 05:12:52;;;;;;;7.82;4.60;;;0.70;99.90;;;;;;4897957;29;20123;-92
2022/03/08 05:15:18;;;;;;;6.88;4.35;;;0.70;99.90;;;;;;4891330;29;20093;-92
2022/03/08 05:17:44;;;;;;;6.00;4.20;;;0.70;99.90;;;;;;4889774;29;20047;-93
2022/03/08 05:20:10;;;;;;;6.80;4.57;;;0.60;99.90;;;;;;4889996;29;20028;-93
2022/03/08 05:22:36;;;;;;;7.40;4.38;;;0.60;99.90;;;;;;4893559;29;20033;-93
2022/03/08 05:25:03;;;;;;;6.93;4.68;;;0.60;99.90;;;;;;4888388;29;20072;-93
2022/03/08 05:27:29;;;;;;;6.57;4.50;;;0.50;99.90;;;;;;4886950;29;20124;-93
2022/03/08 05:29:58;;;;;;;6.10;4.00;;;0.50;99.90;;;;;;4888813;29;20033;-93
2022/03/08 05:32:23;;;;;;;5.85;4.10;;;0.50;99.90;;;;;;4888181;29;20447;-91
2022/03/08 05:34:49;;;;;;;7.95;4.43;;;0.50;99.90;;;;;;4884571;29;20032;-89
2022/03/08 05:37:15;;;;;;;7.18;4.55;;;0.40;99.90;;;;;;4884507;29;20029;-86
2022/03/08 05:39:40;;;;;;;7.78;4.82;;;0.40;99.90;;;;;;4884000;29;20040;-89
2022/03/08 05:42:06;;;;;;;6.70;4.40;;;0.40;99.90;;;;;;4884200;29;20039;-88
2022/03/08 05:44:32;;;;;;;6.78;4.38;;;0.40;99.90;;;;;;4899942;29;20025;-89
2022/03/08 05:46:57;;;;;;;9.05;4.95;;;0.40;99.90;;;;;;4900802;29;20104;-88
2022/03/08 05:49:23;;;;;;;6.25;4.45;;;0.40;99.90;;;;;;4883540;29;20025;-87
2022/03/08 05:51:49;;;;;;;6.93;4.70;;;0.40;99.90;;;;;;4882658;29;20499;-86
2022/03/08 05:54:15;;;;;;;8.60;4.50;;;0.30;99.90;;;;;;4882704;29;20033;-86
2022/03/08 05:56:40;;;;;;;6.35;4.35;;;0.30;99.90;;;;;;4882300;29;20127;-88
2022/03/08 05:59:06;;;;;;;6.90;4.68;;;0.30;99.90;;;;;;4882838;29;20036;-91
2022/03/08 06:01:32;;;;;;;8.40;4.88;;;0.30;99.90;;;;;;4884621;29;20036;-89
2022/03/08 06:03:58;;;;;;;7.75;5.18;;;0.30;99.90;;;;;;4883313;29;20043;-90
2022/03/08 06:06:23;;;;;;;7.32;4.82;;;0.30;99.90;;;;;;4898500;29;20582;-90
2022/03/08 06:08:49;;;;;;;8.05;5.05;;;0.30;99.90;;;;;;4914416;29;20029;-89
2022/03/08 06:11:15;;;;;;;7.15;4.90;;;0.30;99.90;;;;;;4882493;29;20039;-88
2022/03/08 06:13:42;;;;;;;8.23;5.22;;;0.30;99.90;;;;;;4882389;29;20033;-88
2022/03/08 06:16:07;;;;;;;7.28;5.60;;;0.30;99.90;;;;;;4883962;29;20408;-91
2022/03/08 06:18:33;;;;;;;8.13;5.55;;;0.30;99.90;;;;;;4885929;29;20033;-91
2022/03/08 06:20:59;;;;;;;8.75;5.53;;;0.30;99.90;;;;;;4885945;29;20046;-91
2022/03/08 06:23:25;;;;;;;8.27;5.25;;;0.30;99.90;;;;;;4885907;29;20548;-93
2022/03/08 06:25:51;;;;;;;7.32;5.30;;;0.30;99.90;;;;;;4884816;29;20037;-92
2022/03/08 06:28:17;;;;;;;7.53;5.40;;;0.30;99.90;;;;;;4883814;29;20650;-91
2022/03/08 06:30:43;;;;;;;9.38;5.55;;;0.30;99.90;;;;;;4883498;29;20036;-90
2022/03/08 06:33:10;;;;;;;8.43;5.57;;;0.30;99.90;;;;;;4883480;29;20067;-91
2022/03/08 06:35:35;;;;;;;8.95;6.28;;;0.30;99.90;;;;;;4883353;29;20067;-91
2022/03/08 06:38:01;;;;;;;9.73;6.05;;;0.40;99.90;;;;;;4883268;29;20033;-91
2022/03/08 06:40:27;;;;;;;8.00;5.78;;;0.40;99.90;;;;;;4883142;29;20048;-90
2022/03/08 06:42:53;;;;;;;10.30;5.78;;;0.40;99.90;;;;;;4883598;29;20039;-90
2022/03/08 06:45:18;;;;;;;7.60;5.20;;;0.50;99.90;;;;;;4884416;29;20119;-91
2022/03/08 06:47:44;;;;;;;9.70;5.65;;;0.60;99.90;;;;;;4883366;29;20039;-92
2022/03/08 06:50:10;;;;;;;8.23;5.50;;;0.60;99.90;;;;;;4839396;29;1204513;-92
2022/03/08 06:52:36;;;;;;;10.75;6.38;;;0.70;99.90;;;;;;4886282;29;20086;-91
2022/03/08 06:55:02;;;;;;;9.85;6.07;;;0.70;99.90;;;;;;4883204;29;20037;-92
2022/03/08 06:57:27;;;;;;;8.60;5.78;;;0.70;99.90;;;;;;4883015;29;20559;-90
2022/03/08 06:59:53;;;;;;;8.88;5.93;;;0.80;99.90;;;;;;4883603;29;20040;-92
2022/03/08 07:02:19;;;;;;;8.60;5.70;;;0.90;99.90;;;;;;4883235;29;20031;-91
2022/03/08 07:04:44;;;;;;;9.20;5.97;;;0.90;99.90;;;;;;4883266;29;20113;-92
2022/03/08 07:07:10;;;;;;;7.43;5.13;;;0.90;99.90;;;;;;4883180;29;20036;-91
2022/03/08 07:09:36;;;;;;;9.88;5.88;;;1.00;99.90;;;;;;4883618;29;20029;-91
2022/03/08 07:12:01;;;;;;;7.90;5.53;;;0.90;99.90;;;;;;4882787;29;20033;-91
2022/03/08 07:14:27;;;;;;;8.82;5.57;;;1.00;99.90;;;;;;4883667;29;20043;-90
2022/03/08 07:16:53;;;;;;;8.98;5.80;;;1.00;99.90;;;;;;4883502;29;20040;-90
2022/03/08 07:19:19;;;;;;;9.02;5.57;;;1.10;99.90;;;;;;4883163;29;20543;-91
2022/03/08 07:21:45;;;;;;;7.88;5.30;;;1.10;99.90;;;;;;4883559;29;20101;-89
2022/03/08 07:24:11;;;;;;;10.65;6.38;;;1.20;99.90;;;;;;4883592;29;20033;-89
2022/03/08 07:26:37;;;;;;;8.13;6.05;;;1.30;99.90;;;;;;4884305;29;20525;-91
2022/03/08 07:29:03;;;;;;;9.82;6.55;;;1.30;99.90;;;;;;4882283;29;20055;-92
2022/03/08 07:31:29;;;;;;;7.65;5.88;;;1.40;99.90;;;;;;4882384;29;20032;-91
2022/03/08 07:33:55;;;;;;;10.70;5.97;;;1.50;99.90;;;;;;4897397;29;20049;-91
2022/03/08 07:36:21;;;;;;;9.85;7.00;;;1.60;99.90;;;;;;4882672;29;20085;-92
2022/03/08 07:38:47;;;;;;;8.52;5.68;;;1.60;99.90;;;;;;4883286;29;20036;-91
2022/03/08 07:41:13;;;;;;;9.55;6.50;;;1.80;99.90;;;;;;4882984;29;20119;-91
2022/03/08 07:43:39;;;;;;;9.57;6.30;;;1.90;99.90;;;;;;4882823;29;20067;-91
2022/03/08 07:46:09;;;;;;;8.85;5.93;;;2.00;99.90;;;;;;4883199;29;20044;-92
2022/03/08 07:48:35;;;;;;;8.63;5.95;;;2.10;99.90;;;;;;4883098;29;20060;-92
2022/03/08 07:51:01;;;;;;;8.98;5.82;;;2.20;99.90;;;;;;4882829;29;20053;-93
2022/03/08 07:53:27;;;;;;;8.73;6.40;;;2.30;99.90;;;;;;4883322;29;20068;-92
2022/03/08 07:55:53;;;;;;;13.98;7.05;;;2.40;99.90;;;;;;4883628;29;20650;-92
2022/03/08 07:58:19;;;;;;;10.48;6.57;;;2.50;99.90;;;;;;5055592;23;20520;-92
2022/03/08 08:00:45;;;;;;;9.40;6.40;;;2.50;99.90;;;;;;4902180;29;20502;-90
2022/03/08 08:03:11;;;;;;;10.27;6.90;;;2.60;99.90;;;;;;4901592;29;20032;-91
2022/03/08 08:05:37;;;;;;;9.82;6.43;;;2.70;99.90;;;;;;4901511;29;20052;-91
2022/03/08 08:08:05;;;;;;;8.45;6.45;;;2.80;99.90;;;;;;4901704;29;20221;-90
2022/03/08 08:10:31;;;;;;;8.93;6.93;;;3.00;99.90;;;;;;4901416;29;20036;-89
2022/03/08 08:12:57;;;;;;;9.02;5.93;;;3.10;99.90;;;;;;4901783;29;20043;-90
2022/03/08 08:15:22;;;;;;;10.98;6.68;;;3.10;99.90;;;;;;4901877;29;20036;-90
2022/03/08 08:17:48;;;;;;;8.57;6.57;;;3.20;99.90;;;;;;4901949;29;20447;-89
2022/03/08 08:20:14;;;;;;;11.07;7.03;;;3.30;99.90;;;;;;4902592;29;20062;-91
2022/03/08 08:22:40;;;;;;;8.90;6.00;;;3.30;99.90;;;;;;4904347;29;20032;-93
2022/03/08 08:25:07;;;;;;;8.73;5.95;;;3.40;99.90;;;;;;4902354;29;20044;-92
2022/03/08 08:27:33;;;;;;;8.63;6.57;;;3.40;99.90;;;;;;4901741;29;20036;-88
2022/03/08 08:29:58;;;;;;;8.13;6.15;;;3.40;99.90;;;;;;4901724;29;20538;-89
2022/03/08 08:32:24;;;;;;;8.77;6.05;;;3.50;99.90;;;;;;4904910;29;20076;-92
2022/03/08 08:34:50;;;;;;;9.93;6.70;;;3.60;99.90;;;;;;4907282;29;20032;-92
2022/03/08 08:37:16;;;;;;;9.07;6.05;;;3.70;99.90;;;;;;4907973;29;20135;-91
2022/03/08 08:39:41;;;;;;;8.52;5.57;;;3.80;99.90;;;;;;4906391;29;20032;-90
2022/03/08 08:42:07;;;;;;;8.23;6.03;;;3.90;99.90;;;;;;4906848;29;20510;-90
2022/03/08 08:44:33;;;;;;;10.05;6.90;;;3.90;99.90;;;;;;4907450;29;20054;-91
2022/03/08 08:46:59;;;;;;;16.80;6.22;;;4.00;99.90;;;;;;4908631;29;20063;-93
2022/03/08 08:49:25;;;;;;;10.55;6.63;;;4.10;99.90;;;;;;4909648;29;20033;-92
2022/03/08 08:51:51;;;;;;;9.48;5.65;;;4.20;99.90;;;;;;4911003;29;20128;-93
2022/03/08 08:54:18;;;;;;;8.23;6.15;;;4.30;99.90;;;;;;4910294;29;20080;-92
2022/03/08 08:56:44;;;;;;;10.38;6.63;;;4.30;99.90;;;;;;4908061;29;20133;-90
2022/03/08 08:59:10;;;;;;;10.82;6.55;;;4.40;99.90;;;;;;4908248;29;20052;-91
2022/03/08 09:01:36;;;;;;;8.07;6.03;;;4.50;99.90;;;;;;4907527;29;20024;-91
2022/03/08 09:04:02;;;;;;;9.23;6.63;;;4.60;99.90;;;;;;4906893;29;20043;-87
2022/03/08 09:06:28;;;;;;;8.05;5.78;;;4.60;99.90;;;;;;4904674;29;20036;-89
2022/03/08 09:08:56;;;;;;;8.05;6.00;;;4.80;99.90;;;;;;4904310;29;20087;-90
2022/03/08 09:11:22;;;;;;;9.40;6.30;;;4.90;99.90;;;;;;4903521;29;20036;-91
2022/03/08 09:13:48;;;;;;;9.02;6.40;;;4.90;99.90;;;;;;4904362;29;20033;-91
2022/03/08 09:16:15;;;;;;;9.15;5.88;;;5.00;99.90;;;;;;4905256;29;20099;-90
2022/03/08 09:18:44;;;;;;;8.07;5.43;;;5.10;99.90;;;;;;4905152;29;20024;-94
2022/03/08 09:21:11;;;;;;;10.70;6.85;;;5.10;99.90;;;;;;4905767;29;20032;-90
2022/03/08 09:23:37;;;;;;;9.32;6.20;;;5.30;99.90;;;;;;4904956;29;20028;-91
2022/03/08 09:26:03;;;;;;;10.05;6.18;;;5.30;99.90;;;;;;4904764;29;20048;-90
2022/03/08 09:28:30;;;;;;;8.20;5.57;;;5.40;99.90;;;;;;4904329;29;20131;-93
2022/03/08 09:30:56;;;;;;;8.43;6.18;;;5.40;99.90;;;;;;4904950;29;20040;-89
2022/03/08 09:33:22;;;;;;;8.25;6.07;;;5.60;99.90;;;;;;4905834;29;20052;-88
2022/03/08 09:35:54;;;;;;;9.15;6.05;;;5.70;99.90;;;;;;4908218;29;20119;-88
2022/03/08 09:38:20;;;;;;;9.95;6.63;;;6.10;99.90;;;;;;4905441;29;20037;-90
2022/03/08 09:40:47;;;;;;;9.75;5.82;;;7.60;99.90;;;;;;4904534;29;20096;-90
2022/03/08 09:43:14;;;;;;;10.25;6.13;;;9.10;98.80;;;;;;4904807;29;20074;-90
2022/03/08 09:45:42;;;;;;;9.95;6.70;;;10.50;94.80;;;;;;4905168;29;20100;-91
2022/03/08 09:48:09;;;;;;;7.35;5.53;;;11.30;92.50;;;;;;4904913;29;20028;-90
2022/03/08 09:50:35;;;;;;;8.27;5.32;;;12.10;90.70;;;;;;4905222;29;20082;-90
2022/03/08 09:53:02;;;;;;;8.50;6.13;;;12.60;90.50;;;;;;4905152;29;20024;-94
2022/03/08 09:55:28;;;;;;;8.05;5.47;;;13.00;82.90;;;;;;4913300;29;20072;-90
2022/03/08 09:57:54;;;;;;;9.30;5.90;;;13.20;84.60;;;;;;4911625;29;20131;-91
2022/03/08 10:00:23;;;;;;;8.40;5.28;;;13.70;82.90;;;;;;4906234;29;20104;-91
2022/03/08 10:02:52;;;;;;;8.00;5.05;;;14.00;81.30;;;;;;4910191;29;20035;-91
2022/03/08 10:05:27;;;;;;;7.25;5.63;;;14.10;77.10;;;;;;4919433;29;20044;-91
2022/03/08 10:08:08;;;;;;;7.53;5.40;;;14.20;76.20;;;;;;4919341;29;20028;-89
2022/03/08 10:10:44;;;;;;;9.80;5.55;;;14.60;75.80;;;;;;4916249;29;20076;-90
2022/03/08 10:13:13;;;;;;;8.05;5.15;;;14.60;75.20;;;;;;4918319;29;20044;-92
2022/03/08 10:15:40;;;;;;;9.27;5.68;;;15.00;75.60;;;;;;4916721;29;20052;-91
2022/03/08 10:18:06;;;;;;;7.50;5.63;;;15.00;70.90;;;;;;4920209;29;20032;-90
2022/03/08 10:20:33;;;;;;;8.68;5.82;;;14.90;71.70;;;;;;4918652;29;20055;-91
2022/03/08 10:23:10;;;;;;;9.25;6.07;;;14.90;70.30;;;;;;4918434;29;20020;-93
2022/03/08 10:25:36;;;;;;;7.68;5.47;;;14.90;69.30;;;;;;4913254;29;20040;-92
2022/03/08 10:28:04;;;;;;;8.43;6.00;;;14.70;68.80;;;;;;4916946;29;20035;-90
2022/03/08 10:30:48;;;;;;;7.30;5.47;;;14.70;70.10;;;;;;4913166;29;20038;-92
2022/03/08 10:33:19;;;;;;;6.78;5.28;;;15.40;68.70;;;;;;4906055;29;20040;-91
2022/03/08 10:35:53;;;;;;;6.20;4.60;;;15.40;66.90;;;;;;4905543;29;20490;-89
2022/03/08 10:38:22;;;;;;;6.80;5.30;;;15.60;69.90;;;;;;4919236;29;20036;-90
2022/03/08 10:40:47;;;;;;;7.30;5.10;;;15.80;64.10;;;;;;4907952;29;20119;-91
2022/03/08 10:43:16;;;;;;;7.50;4.97;;;15.70;66.70;;;;;;4902500;29;20075;-90
2022/03/08 10:45:45;;;;;;;8.95;5.45;;;16.20;66.90;;;;;;4902464;29;20185;-90
2022/03/08 10:48:18;;;;;;;8.13;4.95;;;16.70;65.20;;;;;;4887384;29;20068;-89
2022/03/08 10:50:46;;;;;;;7.55;5.00;;;16.70;64.70;;;;;;4903584;29;20051;-93
2022/03/08 10:53:12;;;;;;;7.53;4.85;;;16.70;64.80;;;;;;4903141;29;20068;-89
2022/03/08 10:55:43;;;;;;;7.85;5.30;;;16.80;64.10;;;;;;4903905;29;20036;-92
2022/03/08 10:58:12;;;;;;;6.53;4.38;;;16.60;60.90;;;;;;4904258;29;20048;-92
2022/03/08 11:00:40;;;;;;;6.43;4.05;;;16.70;63.10;;;;;;4913230;29;20040;-93
2022/03/08 11:03:12;;;;;;;9.10;5.35;;;16.80;62.70;;;;;;4918166;29;20032;-92
2022/03/08 11:05:44;;;;;;;9.70;4.88;;;17.20;60.70;;;;;;4897148;29;20051;-93
2022/03/08 11:08:10;;;;;;;7.30;4.00;;;17.20;60.90;;;;;;4883711;29;20064;-91
2022/03/08 11:10:36;;;;;;;7.93;3.80;;;17.00;59.40;;;;;;4883417;29;20072;-92
2022/03/08 11:13:04;;;;;;;8.05;4.38;;;17.20;59.10;;;;;;4883718;29;20040;-92
2022/03/08 11:15:33;;;;;;;4.00;3.40;;;17.10;57.20;;;;;;4883931;29;20479;-91
2022/03/08 11:18:00;;;;;;;8.60;3.70;;;17.10;57.10;;;;;;4883601;29;20555;-93
2022/03/08 11:20:27;;;;;;;5.85;3.60;;;17.00;57.50;;;;;;4882728;29;20029;-91
2022/03/08 11:22:55;;;;;;;6.72;3.95;;;16.80;58.00;;;;;;4896207;29;20132;-89
2022/03/08 11:25:23;;;;;;;4.40;3.28;;;17.10;57.90;;;;;;4904322;29;20627;-87
2022/03/08 11:27:49;;;;;;;8.68;3.97;;;17.00;56.30;;;;;;4899155;29;20043;-89
2022/03/08 11:30:19;;;;;;;6.28;3.95;;;16.90;56.30;;;;;;4895992;29;20092;-92
2022/03/08 11:32:48;;;;;;;5.50;3.30;;;17.10;56.50;;;;;;4911503;29;20403;-89
2022/03/08 11:35:38;;;;;;;6.43;3.65;;;17.20;56.40;;;;;;4898176;29;20514;-88
2022/03/08 11:38:04;;;;;;;4.93;3.70;;;17.00;55.70;;;;;;4882553;29;20489;-88
2022/03/08 11:40:34;;;;;;;6.32;3.25;;;17.00;56.30;;;;;;4914077;29;20032;-88
2022/03/08 11:43:04;;;;;;;8.02;4.18;;;17.10;57.60;;;;;;4914167;29;20044;-86
2022/03/08 11:45:31;;;;;;;8.05;3.90;;;17.30;55.80;;;;;;4895947;29;20052;-89
2022/03/08 11:48:03;;;;;;;7.10;4.13;;;17.10;53.70;;;;;;4894013;29;20043;-87
2022/03/08 11:50:39;;;;;;;5.50;3.58;;;16.90;54.10;;;;;;4898396;29;20549;-93
2022/03/08 11:53:07;;;;;;;4.57;3.30;;;16.80;55.30;;;;;;4884459;29;20036;-91
2022/03/08 11:55:47;;;;;;;5.13;4.03;;;17.00;56.90;;;;;;4887731;29;20105;-91
2022/03/08 11:58:21;;;;;;;5.55;3.90;;;17.10;52.80;;;;;;4905291;29;20044;-90
2022/03/08 12:00:55;;;;;;;7.53;4.30;;;16.80;54.50;;;;;;4905861;29;20040;-91
2022/03/08 12:03:23;;;;;;;5.93;3.85;;;16.50;54.40;;;;;;4907459;29;20025;-90
2022/03/08 12:05:49;;;;;;;4.90;3.80;;;16.40;55.40;;;;;;4907879;29;20041;-91
2022/03/08 12:08:29;;;;;;;5.82;3.90;;;16.40;56.10;;;;;;4909817;29;20096;-91
2022/03/08 12:10:58;;;;;;;6.47;4.43;;;16.80;55.10;;;;;;4914766;29;20055;-91
2022/03/08 12:13:24;;;;;;;7.10;3.85;;;17.20;55.10;;;;;;4909475;29;20091;-91
2022/03/08 12:16:08;;;;;;;7.28;4.30;;;17.40;55.40;;;;;;4908842;29;20024;-91
2022/03/08 12:18:37;;;;;;;6.05;3.72;;;17.70;54.70;;;;;;4910729;29;20032;-91
2022/03/08 12:21:18;;;;;;;8.77;4.35;;;17.90;55.40;;;;;;4914320;29;20044;-92
2022/03/08 12:23:58;;;;;;;5.63;3.95;;;17.90;52.80;;;;;;4916094;29;20085;-92
2022/03/08 12:26:36;;;;;;;8.50;4.53;;;18.00;55.80;;;;;;4899909;29;20040;-91
2022/03/08 12:29:06;;;;;;;6.13;4.35;;;18.00;54.00;;;;;;4910293;29;20033;-90
2022/03/08 12:31:32;;;;;;;8.43;4.40;;;17.80;53.50;;;;;;4907436;29;20145;-92
2022/03/08 12:34:06;;;;;;;8.50;4.10;;;17.50;54.40;;;;;;4917219;29;20028;-90
2022/03/08 12:36:34;;;;;;;6.40;4.45;;;17.60;55.80;;;;;;4904894;29;20029;-90
2022/03/08 12:39:00;;;;;;;6.68;3.75;;;17.60;53.10;;;;;;4888436;29;20068;-90
2022/03/08 12:41:28;;;;;;;6.43;3.83;;;17.20;54.80;;;;;;4888745;29;20407;-92
2022/03/08 12:43:59;;;;;;;6.63;4.20;;;17.60;55.90;;;;;;4901976;29;20076;-89
2022/03/08 12:46:25;;;;;;;9.48;4.38;;;18.00;55.50;;;;;;4891029;29;20048;-91
2022/03/08 12:48:55;;;;;;;7.05;4.05;;;18.40;53.20;;;;;;4905559;29;20037;-91
2022/03/08 12:51:21;;;;;;;8.55;4.15;;;18.30;53.50;;;;;;4890307;29;20056;-90
2022/03/08 12:53:53;;;;;;;4.97;3.95;;;18.00;54.70;;;;;;4906057;29;20032;-90